Time;durP1;ratioP1;P1;durP2;ratioP2;P2;SDS_P1;SDS_P2;PMS_P1;PMS_P2;Temp;Humidity;BMP_temperature;BMP_pressure;BME280_temperature;BME280_humidity;BME280_pressure;Samples;Min_cycle;Max_cycle;Signal;HPM_P1;HPM_P2
2021/11/15 00:00:48;;;;;;;33.83;17.98;;;;;;;;;;6192765;28;20046;-65
2021/11/15 00:03:50;;;;;;;19.97;11.97;;;;;;;;;;6207179;28;20077;-64
2021/11/15 00:06:51;;;;;;;11.68;6.90;;;;;;;;;;6189803;28;20137;-65
2021/11/15 00:09:54;;;;;;;12.38;7.80;;;;;;;;;;6211908;28;20046;-64
2021/11/15 00:12:55;;;;;;;6.07;4.00;;;;;;;;;;6202711;28;20223;-63
2021/11/15 00:15:56;;;;;;;6.30;4.55;;;;;;;;;;6199315;28;20406;-64
2021/11/15 00:18:58;;;;;;;5.00;3.05;;;;;;;;;;6209961;28;20133;-64
2021/11/15 00:22:00;;;;;;;4.20;3.47;;;;;;;;;;6204966;28;20140;-64
2021/11/15 00:25:03;;;;;;;5.53;3.20;;;;;;;;;;6208682;28;20057;-63
2021/11/15 00:28:04;;;;;;;3.87;3.20;;;;;;;;;;6206882;28;20140;-64
2021/11/15 00:31:06;;;;;;;4.13;3.33;;;;;;;;;;6197811;28;20050;-64
2021/11/15 00:34:07;;;;;;;4.15;3.00;;;;;;;;;;6210516;28;20045;-63
2021/11/15 00:37:09;;;;;;;3.85;2.67;;;;;;;;;;6198985;28;20192;-63
2021/11/15 00:40:13;;;;;;;3.75;2.83;;;;;;;;;;6207565;28;20052;-64
2021/11/15 00:43:14;;;;;;;2.90;2.35;;;;;;;;;;6210654;28;20050;-63
2021/11/15 00:46:15;;;;;;;3.88;2.58;;;;;;;;;;6200157;28;20482;-63
2021/11/15 00:49:17;;;;;;;4.03;3.33;;;;;;;;;;6210411;28;20152;-63
2021/11/15 00:52:18;;;;;;;3.65;2.30;;;;;;;;;;6206845;28;20081;-64
2021/11/15 00:55:21;;;;;;;2.92;2.38;;;;;;;;;;6206280;28;20085;-63
2021/11/15 00:58:23;;;;;;;2.72;2.20;;;;;;;;;;6215426;28;20041;-64
2021/11/15 01:01:24;;;;;;;5.97;2.30;;;;;;;;;;6199872;28;20250;-64
2021/11/15 01:04:26;;;;;;;3.10;2.17;;;;;;;;;;6196508;28;20527;-63
2021/11/15 01:07:27;;;;;;;3.30;2.20;;;;;;;;;;6191770;28;20053;-64
2021/11/15 01:10:30;;;;;;;2.78;2.10;;;;;;;;;;6194613;28;20210;-64
2021/11/15 01:13:32;;;;;;;4.80;2.17;;;;;;;;;;6211202;28;20133;-64
2021/11/15 01:16:33;;;;;;;2.33;2.00;;;;;;;;;;6190550;28;20099;-64
2021/11/15 01:19:34;;;;;;;2.90;2.17;;;;;;;;;;6212459;28;20041;-63
2021/11/15 01:22:36;;;;;;;4.47;2.42;;;;;;;;;;6199566;28;20038;-64
2021/11/15 01:25:39;;;;;;;3.50;2.90;;;;;;;;;;6196622;28;20065;-64
2021/11/15 01:28:41;;;;;;;4.35;2.47;;;;;;;;;;6211367;28;20044;-63
2021/11/15 01:31:42;;;;;;;2.67;2.28;;;;;;;;;;6194395;28;20104;-64
2021/11/15 01:34:43;;;;;;;2.78;2.05;;;;;;;;;;6216281;28;20200;-63
2021/11/15 01:37:45;;;;;;;2.80;2.30;;;;;;;;;;6200065;28;20111;-64
2021/11/15 01:40:48;;;;;;;3.95;2.38;;;;;;;;;;6203574;28;20129;-63
2021/11/15 01:43:50;;;;;;;3.25;2.35;;;;;;;;;;6209126;28;20130;-64
2021/11/15 01:46:51;;;;;;;3.20;2.20;;;;;;;;;;6195647;28;20188;-64
2021/11/15 01:49:52;;;;;;;3.90;2.58;;;;;;;;;;6207623;28;20181;-63
2021/11/15 01:52:54;;;;;;;4.70;2.22;;;;;;;;;;6194211;28;20050;-64
2021/11/15 01:55:57;;;;;;;3.17;2.10;;;;;;;;;;6196115;28;20038;-64
2021/11/15 01:59:00;;;;;;;3.47;2.50;;;;;;;;;;6210689;28;20391;-67
2021/11/15 02:02:02;;;;;;;3.72;2.30;;;;;;;;;;6192118;28;20413;-64
2021/11/15 02:05:03;;;;;;;4.43;2.80;;;;;;;;;;6209450;28;20050;-65
2021/11/15 02:08:05;;;;;;;3.22;2.30;;;;;;;;;;6199512;28;20046;-65
2021/11/15 02:11:08;;;;;;;3.42;2.50;;;;;;;;;;6199157;28;20083;-67
2021/11/15 02:14:09;;;;;;;3.90;2.60;;;;;;;;;;6209953;28;20080;-67
2021/11/15 02:17:11;;;;;;;4.85;3.13;;;;;;;;;;6195907;28;20133;-65
2021/11/15 02:20:15;;;;;;;5.68;2.90;;;;;;;;;;6200092;28;20196;-65
2021/11/15 02:23:16;;;;;;;;;;;;;;;;;;6209620;28;20054;-64
2021/11/15 02:26:20;;;;;;;4.57;3.47;;;;;;;;;;6199622;28;19944;-65
2021/11/15 02:29:22;;;;;;;5.53;3.50;;;;;;;;;;6218222;28;20401;-67
2021/11/15 02:32:25;;;;;;;5.35;3.45;;;;;;;;;;6199568;28;20185;-64
2021/11/15 02:35:28;;;;;;;5.00;3.85;;;;;;;;;;6204152;28;20042;-66
2021/11/15 02:38:30;;;;;;;4.50;3.30;;;;;;;;;;6212367;28;20577;-66
2021/11/15 02:41:31;;;;;;;4.55;3.67;;;;;;;;;;6205593;28;20126;-64
2021/11/15 02:44:33;;;;;;;4.22;3.55;;;;;;;;;;6210540;28;20107;-66
2021/11/15 02:47:34;;;;;;;6.10;3.97;;;;;;;;;;6193570;28;20755;-66
2021/11/15 02:50:38;;;;;;;8.25;5.13;;;;;;;;;;6199215;28;20033;-65
2021/11/15 02:53:39;;;;;;;7.55;5.55;;;;;;;;;;6217559;28;20091;-66
2021/11/15 02:56:41;;;;;;;8.13;4.88;;;;;;;;;;6207007;28;20045;-65
2021/11/15 02:59:42;;;;;;;6.75;5.20;;;;;;;;;;6214584;28;20047;-64
2021/11/15 03:02:44;;;;;;;7.78;5.25;;;;;;;;;;6195856;28;20489;-65
2021/11/15 03:05:47;;;;;;;6.82;5.28;;;;;;;;;;6204836;28;20054;-64
2021/11/15 03:08:49;;;;;;;6.78;5.35;;;;;;;;;;6214274;28;20075;-64
2021/11/15 03:11:51;;;;;;;7.30;5.68;;;;;;;;;;6203270;28;20144;-65
2021/11/15 03:14:52;;;;;;;7.35;5.32;;;;;;;;;;6196389;28;20098;-64
2021/11/15 03:17:54;;;;;;;7.30;5.60;;;;;;;;;;6188307;28;20054;-64
2021/11/15 03:20:59;;;;;;;6.40;5.43;;;;;;;;;;6204584;28;20104;-65
2021/11/15 03:24:01;;;;;;;6.35;5.50;;;;;;;;;;6213857;28;20139;-65
2021/11/15 03:27:02;;;;;;;7.45;5.05;;;;;;;;;;6203314;28;20464;-63
2021/11/15 03:30:06;;;;;;;7.63;5.10;;;;;;;;;;6216480;28;20148;-65
2021/11/15 03:33:08;;;;;;;5.97;5.20;;;;;;;;;;6200323;28;20385;-64
2021/11/15 03:36:10;;;;;;;5.95;4.95;;;;;;;;;;6202308;28;20050;-65
2021/11/15 03:39:13;;;;;;;5.85;4.70;;;;;;;;;;6211115;28;20050;-64
2021/11/15 03:42:14;;;;;;;6.78;4.55;;;;;;;;;;6201788;28;20422;-65
2021/11/15 03:45:16;;;;;;;6.90;4.50;;;;;;;;;;6206377;28;20216;-66
2021/11/15 03:48:17;;;;;;;8.63;4.82;;;;;;;;;;6204764;28;20100;-64
2021/11/15 03:51:20;;;;;;;5.75;4.85;;;;;;;;;;6198086;28;20099;-64
2021/11/15 03:54:21;;;;;;;5.90;5.07;;;;;;;;;;6218314;28;20049;-65
2021/11/15 03:57:23;;;;;;;6.47;4.95;;;;;;;;;;6208890;28;20147;-64
2021/11/15 04:00:27;;;;;;;5.90;4.78;;;;;;;;;;6205290;28;20792;-65
2021/11/15 04:03:31;;;;;;;5.80;4.68;;;;;;;;;;6208758;28;20188;-65
2021/11/15 04:06:39;;;;;;;6.75;4.80;;;;;;;;;;6204376;28;20378;-64
2021/11/15 04:09:40;;;;;;;7.53;4.70;;;;;;;;;;6209287;28;20042;-64
2021/11/15 04:12:42;;;;;;;6.80;4.72;;;;;;;;;;6206804;28;20050;-65
2021/11/15 04:15:44;;;;;;;5.55;4.72;;;;;;;;;;6198577;28;20193;-65
2021/11/15 04:18:48;;;;;;;7.32;4.63;;;;;;;;;;6209437;28;20046;-65
2021/11/15 04:21:51;;;;;;;5.05;4.28;;;;;;;;;;6207515;28;20093;-64
2021/11/15 04:24:52;;;;;;;6.13;4.78;;;;;;;;;;6215135;28;20038;-65
2021/11/15 04:27:54;;;;;;;5.85;4.55;;;;;;;;;;6201736;28;20208;-65
2021/11/15 04:30:55;;;;;;;6.50;5.03;;;;;;;;;;6199352;28;20408;-64
2021/11/15 04:33:57;;;;;;;7.80;5.35;;;;;;;;;;6205266;28;20111;-64
2021/11/15 04:36:59;;;;;;;6.55;5.32;;;;;;;;;;6200231;28;20424;-65
2021/11/15 04:40:01;;;;;;;6.22;5.35;;;;;;;;;;6206750;28;20053;-64
2021/11/15 04:43:03;;;;;;;6.63;5.93;;;;;;;;;;6200818;28;20046;-65
2021/11/15 04:46:04;;;;;;;8.23;5.50;;;;;;;;;;6195311;28;20050;-65
2021/11/15 04:49:05;;;;;;;7.70;5.38;;;;;;;;;;6210985;28;20052;-65
2021/11/15 04:52:08;;;;;;;7.93;5.20;;;;;;;;;;6198870;28;20062;-64
2021/11/15 04:55:11;;;;;;;5.93;5.22;;;;;;;;;;6210864;28;20371;-66
2021/11/15 04:58:13;;;;;;;5.25;4.75;;;;;;;;;;6213416;28;20500;-64
2021/11/15 05:01:14;;;;;;;6.95;4.97;;;;;;;;;;6201061;28;20062;-64
2021/11/15 05:04:16;;;;;;;6.72;4.60;;;;;;;;;;6202703;28;20068;-65
2021/11/15 05:07:18;;;;;;;9.25;5.00;;;;;;;;;;6197804;28;20511;-65
2021/11/15 05:10:20;;;;;;;5.47;4.68;;;;;;;;;;6202301;28;20125;-65
2021/11/15 05:13:22;;;;;;;6.40;5.03;;;;;;;;;;6209644;28;20061;-65
2021/11/15 05:16:23;;;;;;;8.82;5.22;;;;;;;;;;6195017;28;20084;-65
2021/11/15 05:19:24;;;;;;;7.10;5.05;;;;;;;;;;6206130;28;20536;-65
2021/11/15 05:22:27;;;;;;;7.35;5.38;;;;;;;;;;6201289;28;20126;-65
2021/11/15 05:25:29;;;;;;;6.28;4.63;;;;;;;;;;6202646;28;20031;-65
2021/11/15 05:28:30;;;;;;;6.63;4.70;;;;;;;;;;6211029;28;20224;-64
2021/11/15 05:31:34;;;;;;;7.38;5.03;;;;;;;;;;6194357;28;20087;-65
2021/11/15 05:34:35;;;;;;;6.50;5.30;;;;;;;;;;6205610;28;20429;-65
2021/11/15 05:37:38;;;;;;;6.30;5.10;;;;;;;;;;6199100;28;20060;-65
2021/11/15 05:40:40;;;;;;;6.70;5.10;;;;;;;;;;6197916;28;20128;-65
2021/11/15 05:43:41;;;;;;;7.47;5.70;;;;;;;;;;6210773;28;20058;-65
2021/11/15 05:46:42;;;;;;;6.13;5.35;;;;;;;;;;6192426;28;20132;-65
2021/11/15 05:49:44;;;;;;;8.02;5.80;;;;;;;;;;6208294;28;20052;-64
2021/11/15 05:52:47;;;;;;;5.97;5.15;;;;;;;;;;6193659;28;20532;-65
2021/11/15 05:55:48;;;;;;;7.43;5.70;;;;;;;;;;6201153;28;20090;-65
2021/11/15 05:58:49;;;;;;;5.75;4.85;;;;;;;;;;6208888;28;20132;-65
2021/11/15 06:01:51;;;;;;;5.60;4.90;;;;;;;;;;6192000;28;21222;-65
2021/11/15 06:04:52;;;;;;;5.85;4.82;;;;;;;;;;6212974;28;20133;-65
2021/11/15 06:07:55;;;;;;;5.88;4.75;;;;;;;;;;6201274;28;20416;-65
2021/11/15 06:10:57;;;;;;;5.20;4.70;;;;;;;;;;6206281;28;20099;-65
2021/11/15 06:13:58;;;;;;;4.93;4.43;;;;;;;;;;6214524;28;20481;-65
2021/11/15 06:16:59;;;;;;;5.90;5.05;;;;;;;;;;6196790;28;20830;-64
2021/11/15 06:20:01;;;;;;;7.35;5.00;;;;;;;;;;6210861;28;20145;-64
2021/11/15 06:23:04;;;;;;;6.20;4.63;;;;;;;;;;6203314;28;20056;-64
2021/11/15 06:26:05;;;;;;;5.70;4.20;;;;;;;;;;6203636;28;20057;-65
2021/11/15 06:29:08;;;;;;;6.00;4.38;;;;;;;;;;6213412;28;20041;-65
2021/11/15 06:32:10;;;;;;;6.05;4.13;;;;;;;;;;6197622;28;20058;-65
2021/11/15 06:35:12;;;;;;;7.03;4.57;;;;;;;;;;6203437;28;20192;-65
2021/11/15 06:38:15;;;;;;;6.32;4.57;;;;;;;;;;6207032;28;20056;-65
2021/11/15 06:41:16;;;;;;;5.63;4.57;;;;;;;;;;6205014;28;20165;-65
2021/11/15 06:44:17;;;;;;;6.05;4.93;;;;;;;;;;6207305;28;20130;-66
2021/11/15 06:47:19;;;;;;;5.95;4.72;;;;;;;;;;6194091;28;20049;-66
2021/11/15 06:50:21;;;;;;;6.15;4.43;;;;;;;;;;6201717;28;20160;-67
2021/11/15 06:53:24;;;;;;;6.75;5.05;;;;;;;;;;6216653;28;20054;-68
2021/11/15 06:56:26;;;;;;;8.60;5.93;;;;;;;;;;6204393;28;20484;-68
2021/11/15 06:59:27;;;;;;;6.80;4.63;;;;;;;;;;6212295;28;20046;-65
2021/11/15 07:02:28;;;;;;;5.38;4.30;;;;;;;;;;6195394;28;20054;-68
2021/11/15 07:05:30;;;;;;;6.45;4.30;;;;;;;;;;6199728;28;20137;-68
2021/11/15 07:08:32;;;;;;;5.55;4.53;;;;;;;;;;6210261;28;20522;-68
2021/11/15 07:11:35;;;;;;;8.80;5.00;;;;;;;;;;6202219;28;20042;-68
2021/11/15 07:14:36;;;;;;;8.90;5.00;;;;;;;;;;6215862;28;20470;-67
2021/11/15 07:17:38;;;;;;;9.63;5.40;;;;;;;;;;6198164;28;20065;-67
2021/11/15 07:20:39;;;;;;;6.05;4.93;;;;;;;;;;6198985;28;20092;-66
2021/11/15 07:23:42;;;;;;;8.23;6.00;;;;;;;;;;6209808;28;20046;-66
2021/11/15 07:26:44;;;;;;;8.25;5.65;;;;;;;;;;6201007;28;20629;-67
2021/11/15 07:29:45;;;;;;;6.82;5.40;;;;;;;;;;6212661;28;20085;-66
2021/11/15 07:32:47;;;;;;;8.85;5.95;;;;;;;;;;6194686;28;20143;-66
2021/11/15 07:35:49;;;;;;;6.05;4.55;;;;;;;;;;6204611;28;20057;-65
2021/11/15 07:38:52;;;;;;;6.82;5.22;;;;;;;;;;6218196;28;20042;-68
2021/11/15 07:41:53;;;;;;;8.68;5.30;;;;;;;;;;6204714;28;20736;-68
2021/11/15 07:44:55;;;;;;;9.82;5.35;;;;;;;;;;6211688;28;20577;-66
2021/11/15 07:47:56;;;;;;;7.03;5.50;;;;;;;;;;6192283;28;20058;-68
2021/11/15 07:50:59;;;;;;;8.45;5.72;;;;;;;;;;6201191;28;20101;-68
2021/11/15 07:54:02;;;;;;;8.07;6.15;;;;;;;;;;6219466;28;20080;-68
2021/11/15 07:57:06;;;;;;;8.52;6.65;;;;;;;;;;6204070;28;20053;-69
2021/11/15 08:00:08;;;;;;;8.02;5.68;;;;;;;;;;6211957;28;20521;-67
2021/11/15 08:03:10;;;;;;;6.72;5.40;;;;;;;;;;6198019;28;20563;-66
2021/11/15 08:06:15;;;;;;;7.43;5.50;;;;;;;;;;6195928;28;20087;-67
2021/11/15 08:09:18;;;;;;;7.47;5.70;;;;;;;;;;6205796;28;20041;-67
2021/11/15 08:12:20;;;;;;;8.32;5.70;;;;;;;;;;6198888;28;20045;-68
2021/11/15 08:15:23;;;;;;;7.18;5.65;;;;;;;;;;6203266;28;20113;-69
2021/11/15 08:18:24;;;;;;;7.53;5.55;;;;;;;;;;6204216;28;20049;-68
2021/11/15 08:21:26;;;;;;;9.43;5.00;;;;;;;;;;6203439;28;20049;-67
2021/11/15 08:24:51;;;;;;;8.27;4.72;;;;;;;;;;6207308;28;20049;-67
2021/11/15 08:27:54;;;;;;;7.28;5.47;;;;;;;;;;6176093;28;20096;-67
2021/11/15 08:30:56;;;;;;;7.05;5.00;;;;;;;;;;6192681;28;20088;-67
2021/11/15 08:33:58;;;;;;;8.07;5.30;;;;;;;;;;6202475;28;20041;-67
2021/11/15 08:36:59;;;;;;;9.02;5.30;;;;;;;;;;6201078;28;20367;-67
2021/11/15 08:40:01;;;;;;;10.85;5.75;;;;;;;;;;6207277;28;20057;-67
2021/11/15 08:43:04;;;;;;;8.63;5.78;;;;;;;;;;6198851;28;20188;-67
2021/11/15 08:46:07;;;;;;;8.52;5.78;;;;;;;;;;6191220;28;20038;-67
2021/11/15 08:49:09;;;;;;;7.13;5.63;;;;;;;;;;6205981;28;20049;-68
2021/11/15 08:52:10;;;;;;;9.90;6.28;;;;;;;;;;6198414;28;20129;-67
2021/11/15 08:55:12;;;;;;;8.95;5.55;;;;;;;;;;6203449;28;20041;-68
2021/11/15 08:58:14;;;;;;;8.45;5.38;;;;;;;;;;6205839;28;20054;-67
2021/11/15 09:01:17;;;;;;;7.57;5.30;;;;;;;;;;6183924;28;20098;-66
2021/11/15 09:04:19;;;;;;;8.10;5.45;;;;;;;;;;6202120;28;20054;-66
2021/11/15 09:07:21;;;;;;;7.53;5.53;;;;;;;;;;6193567;28;20502;-67
2021/11/15 09:10:22;;;;;;;13.40;6.50;;;;;;;;;;6194058;28;20141;-67
2021/11/15 09:13:25;;;;;;;7.03;5.47;;;;;;;;;;6202811;28;20119;-66
2021/11/15 09:16:26;;;;;;;9.60;6.13;;;;;;;;;;6185098;28;20049;-66
2021/11/15 09:19:28;;;;;;;8.30;5.78;;;;;;;;;;6199825;28;20133;-66
2021/11/15 09:22:29;;;;;;;10.60;6.30;;;;;;;;;;6190392;28;20410;-66
2021/11/15 09:25:31;;;;;;;9.20;6.28;;;;;;;;;;6192144;28;20294;-66
2021/11/15 09:28:34;;;;;;;9.50;6.03;;;;;;;;;;6203901;28;20046;-66
2021/11/15 09:31:36;;;;;;;12.50;6.38;;;;;;;;;;6182557;28;22130;-65
2021/11/15 09:34:40;;;;;;;11.88;6.88;;;;;;;;;;6187963;28;20165;-67
2021/11/15 09:37:42;;;;;;;8.00;5.88;;;;;;;;;;6193627;28;20046;-67
2021/11/15 09:40:44;;;;;;;8.80;6.15;;;;;;;;;;6199077;28;20127;-70
2021/11/15 09:43:46;;;;;;;9.45;5.63;;;;;;;;;;6210544;28;20054;-71
2021/11/15 09:46:48;;;;;;;9.25;5.85;;;;;;;;;;6192965;28;20165;-72
2021/11/15 09:49:49;;;;;;;11.45;6.53;;;;;;;;;;6208015;28;20050;-69
2021/11/15 09:52:51;;;;;;;8.98;5.65;;;;;;;;;;6197655;28;20049;-72
2021/11/15 09:55:52;;;;;;;10.80;6.47;;;;;;;;;;6197735;28;20038;-68
2021/11/15 09:58:56;;;;;;;10.27;6.20;;;;;;;;;;6212274;28;20145;-68
2021/11/15 10:01:59;;;;;;;12.38;6.90;;;;;;;;;;6190803;28;20209;-67
2021/11/15 10:05:00;;;;;;;10.20;6.80;;;;;;;;;;6210598;28;20188;-69
2021/11/15 10:08:05;;;;;;;9.70;6.38;;;;;;;;;;6201822;28;20042;-66
2021/11/15 10:11:06;;;;;;;11.63;6.95;;;;;;;;;;6200375;28;21943;-66
2021/11/15 10:14:10;;;;;;;12.13;6.68;;;;;;;;;;6211333;28;20051;-71
2021/11/15 10:17:11;;;;;;;9.65;7.38;;;;;;;;;;6191672;28;20123;-69
2021/11/15 10:20:13;;;;;;;11.68;7.00;;;;;;;;;;6198552;28;20058;-70
2021/11/15 10:23:29;;;;;;;9.00;6.82;;;;;;;;;;6207662;28;20685;-67
2021/11/15 10:26:35;;;;;;;12.45;7.57;;;;;;;;;;6196486;28;20503;-66
2021/11/15 10:29:39;;;;;;;11.25;7.03;;;;;;;;;;6211392;28;21640;-65
2021/11/15 10:32:43;;;;;;;9.55;7.47;;;;;;;;;;6191166;28;20095;-67
2021/11/15 10:35:46;;;;;;;10.55;7.90;;;;;;;;;;6198256;28;20084;-66
2021/11/15 10:38:50;;;;;;;11.20;8.10;;;;;;;;;;6209849;28;20050;-66
2021/11/15 10:41:51;;;;;;;;;;;;;;;;;;6202890;28;20483;-65
2021/11/15 10:44:56;;;;;;;10.27;7.75;;;;;;;;;;6208601;28;19967;-66
2021/11/15 10:48:00;;;;;;;11.32;8.30;;;;;;;;;;6192146;28;20179;-66
2021/11/15 10:51:03;;;;;;;10.75;8.00;;;;;;;;;;6196890;28;22557;-66
2021/11/15 10:54:06;;;;;;;15.48;8.23;;;;;;;;;;6208945;28;20060;-66
2021/11/15 10:57:18;;;;;;;13.05;8.52;;;;;;;;;;6200637;28;20076;-65
2021/11/15 11:00:26;;;;;;;12.32;8.10;;;;;;;;;;6202376;28;20050;-66
2021/11/15 11:03:30;;;;;;;12.63;8.93;;;;;;;;;;6205673;28;20135;-66
2021/11/15 11:06:31;;;;;;;9.77;7.68;;;;;;;;;;6205580;28;20054;-66
2021/11/15 11:09:34;;;;;;;9.95;8.23;;;;;;;;;;6212845;28;20127;-66
2021/11/15 11:12:40;;;;;;;14.30;9.25;;;;;;;;;;6192654;28;20141;-66
2021/11/15 11:15:45;;;;;;;11.43;8.77;;;;;;;;;;6196682;28;20756;-66
2021/11/15 11:18:50;;;;;;;10.52;8.48;;;;;;;;;;6202789;28;20505;-66
2021/11/15 11:22:12;;;;;;;13.00;9.20;;;;;;;;;;6198760;28;20439;-66
2021/11/15 11:25:24;;;;;;;17.70;10.20;;;;;;;;;;6203066;28;20058;-66
2021/11/15 11:28:30;;;;;;;13.68;10.23;;;;;;;;;;6206092;28;20186;-66
2021/11/15 11:31:34;;;;;;;18.33;10.27;;;;;;;;;;6190634;28;20042;-65
2021/11/15 11:34:35;;;;;;;12.18;9.90;;;;;;;;;;6209895;28;20153;-64
2021/11/15 11:37:37;;;;;;;14.40;11.00;;;;;;;;;;6201274;28;20521;-65
2021/11/15 11:40:40;;;;;;;14.98;10.75;;;;;;;;;;6202100;28;20050;-65
2021/11/15 11:43:42;;;;;;;11.82;10.18;;;;;;;;;;6212947;28;20715;-65
2021/11/15 11:46:45;;;;;;;17.23;11.13;;;;;;;;;;6188940;28;20184;-65
2021/11/15 11:49:47;;;;;;;13.30;11.25;;;;;;;;;;6213130;28;20064;-66
2021/11/15 11:53:01;;;;;;;13.52;10.07;;;;;;;;;;6199354;28;20517;-64
2021/11/15 11:56:02;;;;;;;;;;;;;;;;;;6200697;28;20100;-66
2021/11/15 11:59:11;;;;;;;14.55;10.73;;;;;;;;;;6211470;28;19929;-66
2021/11/15 12:02:18;;;;;;;12.20;10.05;;;;;;;;;;6189475;28;20160;-65
2021/11/15 12:05:28;;;;;;;16.27;9.98;;;;;;;;;;6198222;28;20192;-65
2021/11/15 12:08:51;;;;;;;12.48;10.40;;;;;;;;;;6206461;28;20054;-65
2021/11/15 12:11:57;;;;;;;14.20;9.52;;;;;;;;;;6201074;28;20121;-65
2021/11/15 12:15:00;;;;;;;13.80;10.40;;;;;;;;;;6206644;28;20156;-65
2021/11/15 12:18:13;;;;;;;12.30;10.77;;;;;;;;;;6190121;28;20056;-64
2021/11/15 12:21:20;;;;;;;15.65;11.60;;;;;;;;;;6195911;28;20589;-64
2021/11/15 12:24:23;;;;;;;14.50;11.27;;;;;;;;;;6206697;28;20052;-64
2021/11/15 12:27:37;;;;;;;14.98;11.68;;;;;;;;;;6199863;28;20066;-64
2021/11/15 12:30:44;;;;;;;13.30;11.35;;;;;;;;;;6185178;28;20064;-65
2021/11/15 12:33:47;;;;;;;13.13;10.00;;;;;;;;;;6209593;28;20592;-65
2021/11/15 12:36:51;;;;;;;12.75;9.25;;;;;;;;;;6198703;28;20049;-66
2021/11/15 12:39:52;;;;;;;17.45;11.10;;;;;;;;;;6212178;28;20521;-66
2021/11/15 12:43:11;;;;;;;13.13;9.45;;;;;;;;;;6200826;28;20085;-66
2021/11/15 12:46:17;;;;;;;11.82;8.77;;;;;;;;;;6190907;28;20319;-68
2021/11/15 12:49:21;;;;;;;11.60;8.85;;;;;;;;;;6210313;28;20057;-66
2021/11/15 12:52:30;;;;;;;9.38;8.05;;;;;;;;;;6184234;28;20056;-66
2021/11/15 12:55:32;;;;;;;11.05;8.00;;;;;;;;;;6199621;28;20172;-66
2021/11/15 12:58:33;;;;;;;9.18;7.38;;;;;;;;;;6212457;28;20718;-66
2021/11/15 13:01:34;;;;;;;9.50;7.45;;;;;;;;;;6192051;28;20062;-68
2021/11/15 13:04:38;;;;;;;8.90;7.30;;;;;;;;;;6210825;28;20042;-68
2021/11/15 13:07:39;;;;;;;9.97;7.63;;;;;;;;;;6200005;28;20045;-68
2021/11/15 13:10:41;;;;;;;8.57;7.68;;;;;;;;;;6200139;28;20938;-68
2021/11/15 13:13:43;;;;;;;13.85;8.10;;;;;;;;;;6214887;28;20057;-67
2021/11/15 13:16:46;;;;;;;9.82;7.90;;;;;;;;;;6195117;28;20102;-68
2021/11/15 13:19:49;;;;;;;11.63;8.40;;;;;;;;;;6209764;28;20180;-66
2021/11/15 13:22:51;;;;;;;10.10;8.57;;;;;;;;;;6199264;28;20049;-66
2021/11/15 13:25:52;;;;;;;14.50;8.82;;;;;;;;;;6202968;28;20484;-68
2021/11/15 13:28:54;;;;;;;14.25;8.40;;;;;;;;;;6212918;28;20167;-68
2021/11/15 13:31:56;;;;;;;13.23;8.05;;;;;;;;;;6177978;28;20521;-68
2021/11/15 13:34:59;;;;;;;10.88;7.90;;;;;;;;;;6200463;28;20129;-68
2021/11/15 13:38:01;;;;;;;12.85;8.18;;;;;;;;;;6200721;28;20045;-67
2021/11/15 13:41:03;;;;;;;14.38;8.48;;;;;;;;;;6195516;28;20108;-68
2021/11/15 13:44:05;;;;;;;12.18;8.10;;;;;;;;;;6207090;28;20108;-67
2021/11/15 13:47:07;;;;;;;10.63;7.97;;;;;;;;;;6190774;28;21085;-66
2021/11/15 13:50:10;;;;;;;10.10;8.20;;;;;;;;;;6197605;28;20589;-67
2021/11/15 13:53:12;;;;;;;12.07;7.68;;;;;;;;;;6198189;28;20049;-67
2021/11/15 13:56:13;;;;;;;13.02;8.60;;;;;;;;;;6191649;28;20130;-67
2021/11/15 13:59:15;;;;;;;12.85;8.55;;;;;;;;;;6207593;28;20054;-67
2021/11/15 14:02:16;;;;;;;11.65;8.23;;;;;;;;;;6191166;28;20132;-68
2021/11/15 14:05:25;;;;;;;13.75;8.52;;;;;;;;;;6207646;28;20057;-68
2021/11/15 14:08:27;;;;;;;13.68;9.38;;;;;;;;;;6206280;28;20516;-67
2021/11/15 14:11:29;;;;;;;11.38;8.60;;;;;;;;;;6122825;28;20104;-67
2021/11/15 14:14:30;;;;;;;12.95;9.63;;;;;;;;;;6205541;28;20053;-67
2021/11/15 14:17:31;;;;;;;13.27;8.95;;;;;;;;;;6185864;28;20060;-67
2021/11/15 14:20:34;;;;;;;16.48;8.48;;;;;;;;;;6195089;28;20091;-67
2021/11/15 14:23:36;;;;;;;14.13;9.57;;;;;;;;;;6211609;28;20073;-68
2021/11/15 14:26:37;;;;;;;14.68;9.70;;;;;;;;;;6203344;28;20049;-67
2021/11/15 14:29:39;;;;;;;14.57;9.63;;;;;;;;;;6213410;28;20049;-67
2021/11/15 14:32:40;;;;;;;14.70;9.52;;;;;;;;;;6191861;28;20041;-67
2021/11/15 14:35:46;;;;;;;15.45;9.77;;;;;;;;;;6199460;28;20621;-67
2021/11/15 14:38:48;;;;;;;13.23;8.48;;;;;;;;;;6211062;28;20058;-67
2021/11/15 14:41:49;;;;;;;15.35;8.80;;;;;;;;;;6199570;28;20151;-67
2021/11/15 14:44:51;;;;;;;15.30;9.63;;;;;;;;;;6216246;28;20108;-67
2021/11/15 14:47:52;;;;;;;13.32;8.85;;;;;;;;;;6187311;28;20509;-67
2021/11/15 14:50:55;;;;;;;17.38;9.38;;;;;;;;;;6199376;28;20752;-67
2021/11/15 14:53:57;;;;;;;14.43;9.52;;;;;;;;;;6210794;28;20060;-67
2021/11/15 14:56:59;;;;;;;14.27;9.10;;;;;;;;;;6200471;28;20193;-67
2021/11/15 15:00:00;;;;;;;15.73;9.13;;;;;;;;;;6216177;28;20052;-67
2021/11/15 15:03:02;;;;;;;17.63;10.35;;;;;;;;;;6193061;28;20440;-66
2021/11/15 15:06:05;;;;;;;14.07;9.90;;;;;;;;;;6199691;28;20107;-67
2021/11/15 15:09:06;;;;;;;15.32;9.45;;;;;;;;;;6205204;28;20085;-67
2021/11/15 15:12:10;;;;;;;13.40;8.70;;;;;;;;;;6198703;28;20076;-67
2021/11/15 15:15:15;;;;;;;13.27;8.63;;;;;;;;;;6201385;28;20050;-67
2021/11/15 15:18:19;;;;;;;13.05;8.70;;;;;;;;;;6202562;28;20457;-67
2021/11/15 15:21:23;;;;;;;13.88;8.30;;;;;;;;;;6199070;28;20092;-67
2021/11/15 15:24:25;;;;;;;10.50;7.77;;;;;;;;;;6208398;28;21068;-67
2021/11/15 15:27:27;;;;;;;15.40;7.93;;;;;;;;;;6203875;28;20210;-67
2021/11/15 15:30:29;;;;;;;12.55;8.00;;;;;;;;;;6196953;28;20409;-67
2021/11/15 15:33:30;;;;;;;12.82;8.07;;;;;;;;;;6204677;28;22464;-67
2021/11/15 15:36:33;;;;;;;12.63;8.82;;;;;;;;;;6201104;28;20189;-67
2021/11/15 15:39:35;;;;;;;10.15;7.40;;;;;;;;;;6210121;28;20462;-67
2021/11/15 15:42:36;;;;;;;15.82;8.35;;;;;;;;;;6198900;28;20041;-67
2021/11/15 15:45:38;;;;;;;13.18;7.78;;;;;;;;;;6192526;28;20124;-69
2021/11/15 15:48:39;;;;;;;12.18;7.53;;;;;;;;;;6205127;28;20208;-68
2021/11/15 15:51:42;;;;;;;13.70;7.63;;;;;;;;;;6195916;28;20132;-68
2021/11/15 15:54:43;;;;;;;12.05;7.90;;;;;;;;;;6214847;28;20078;-69
2021/11/15 15:57:45;;;;;;;9.80;7.00;;;;;;;;;;6200555;28;20461;-68
2021/11/15 16:00:46;;;;;;;14.02;7.97;;;;;;;;;;6200237;28;20365;-67
2021/11/15 16:03:58;;;;;;;10.93;7.45;;;;;;;;;;6203309;28;20415;-67
2021/11/15 16:07:15;;;;;;;13.30;7.82;;;;;;;;;;6201327;28;20111;-66
2021/11/15 16:16:58;;;;;;;12.13;8.23;;;;;;;;;;6190108;28;20034;-69
2021/11/15 16:19:59;;;;;;;11.02;7.95;;;;;;;;;;6202899;28;20045;-69
2021/11/15 16:23:02;;;;;;;12.90;8.40;;;;;;;;;;6198664;28;20050;-68
2021/11/15 16:26:03;;;;;;;11.07;8.18;;;;;;;;;;6200031;28;20045;-68
2021/11/15 16:29:05;;;;;;;11.55;8.35;;;;;;;;;;6213843;28;20124;-69
2021/11/15 16:32:07;;;;;;;13.77;8.63;;;;;;;;;;6190447;28;20053;-69
2021/11/15 16:35:09;;;;;;;12.07;9.05;;;;;;;;;;6199732;28;20107;-67
2021/11/15 16:38:12;;;;;;;11.75;8.60;;;;;;;;;;6207982;28;20208;-69
2021/11/15 16:41:13;;;;;;;11.73;8.98;;;;;;;;;;6199115;28;20260;-69
2021/11/15 16:44:19;;;;;;;13.05;8.98;;;;;;;;;;6215686;28;20057;-67
2021/11/15 16:47:21;;;;;;;12.25;9.32;;;;;;;;;;6190101;28;20062;-67
2021/11/15 16:50:23;;;;;;;16.63;10.10;;;;;;;;;;6202422;28;20065;-68
2021/11/15 16:53:25;;;;;;;16.10;10.55;;;;;;;;;;6207880;28;20046;-68
2021/11/15 16:56:29;;;;;;;13.02;9.80;;;;;;;;;;6196030;28;20125;-68
2021/11/15 16:59:31;;;;;;;;;;;;;;;;;;6217297;28;20049;-69
2021/11/15 17:02:32;;;;;;;13.35;10.07;;;;;;;;;;6191977;28;20396;-69
2021/11/15 17:05:34;;;;;;;12.85;9.32;;;;;;;;;;6203502;28;20046;-69
2021/11/15 17:08:38;;;;;;;14.05;10.05;;;;;;;;;;6212667;28;20111;-68
2021/11/15 17:11:39;;;;;;;16.02;10.48;;;;;;;;;;6202827;28;20130;-68
2021/11/15 17:14:42;;;;;;;11.18;9.27;;;;;;;;;;6218698;28;20061;-69
2021/11/15 17:17:44;;;;;;;13.75;9.55;;;;;;;;;;6195113;28;20072;-69
2021/11/15 17:20:47;;;;;;;16.05;10.32;;;;;;;;;;6203612;28;20049;-69
2021/11/15 17:23:51;;;;;;;12.68;9.70;;;;;;;;;;6208361;28;20054;-69
2021/11/15 17:26:53;;;;;;;12.43;9.90;;;;;;;;;;6198808;28;20427;-69
2021/11/15 17:29:54;;;;;;;14.57;10.52;;;;;;;;;;6210718;28;20180;-69
2021/11/15 17:32:55;;;;;;;15.48;11.45;;;;;;;;;;6189704;28;20054;-69
2021/11/15 17:35:57;;;;;;;15.85;11.27;;;;;;;;;;6197588;28;20038;-68
2021/11/15 17:39:01;;;;;;;14.85;10.98;;;;;;;;;;6207000;28;20127;-69
2021/11/15 17:42:03;;;;;;;15.80;11.50;;;;;;;;;;6197711;28;20191;-69
2021/11/15 17:45:04;;;;;;;16.10;11.27;;;;;;;;;;6207947;28;20095;-69
2021/11/15 17:48:06;;;;;;;15.48;10.95;;;;;;;;;;6191704;28;20042;-68
2021/11/15 17:51:10;;;;;;;15.02;11.05;;;;;;;;;;6194847;28;20053;-69
2021/11/15 17:54:17;;;;;;;18.23;12.43;;;;;;;;;;6207289;28;20050;-69
2021/11/15 17:57:25;;;;;;;16.23;11.70;;;;;;;;;;6200390;28;20101;-68
2021/11/15 18:00:26;;;;;;;14.15;10.68;;;;;;;;;;6202961;28;20300;-69
2021/11/15 18:03:28;;;;;;;15.60;11.43;;;;;;;;;;6202106;28;20069;-69
2021/11/15 18:06:29;;;;;;;16.25;11.15;;;;;;;;;;6202867;28;22106;-68
2021/11/15 18:09:32;;;;;;;17.55;12.20;;;;;;;;;;6217080;28;20732;-68
2021/11/15 18:12:39;;;;;;;17.98;12.90;;;;;;;;;;6208101;28;20053;-69